sensor_id;sensor_type;location;lat;lon;timestamp;temperature;humidity
2453;DHT22;63678;47.994;7.854;2023-07-13T00:00:07;24.00;99.90
2453;DHT22;63678;47.994;7.854;2023-07-13T00:02:45;23.90;99.90
2453;DHT22;63678;47.994;7.854;2023-07-13T00:07:54;24.00;99.90
2453;DHT22;63678;47.994;7.854;2023-07-13T00:10:27;24.10;99.90
2453;DHT22;63678;47.994;7.854;2023-07-13T00:13:02;24.10;99.90
2453;DHT22;63678;47.994;7.854;2023-07-13T00:15:35;24.00;99.90
2453;DHT22;63678;47.994;7.854;2023-07-13T00:18:08;24.00;99.90
2453;DHT22;63678;47.994;7.854;2023-07-13T00:20:40;24.10;99.90
2453;DHT22;63678;47.994;7.854;2023-07-13T00:23:13;24.00;99.90
2453;DHT22;63678;47.994;7.854;2023-07-13T00:28:23;23.40;99.90
2453;DHT22;63678;47.994;7.854;2023-07-13T00:33:30;23.40;99.90
2453;DHT22;63678;47.994;7.854;2023-07-13T00:36:03;23.40;99.90
2453;DHT22;63678;47.994;7.854;2023-07-13T00:38:36;22.80;99.90
2453;DHT22;63678;47.994;7.854;2023-07-13T00:41:10;22.60;99.90
2453;DHT22;63678;47.994;7.854;2023-07-13T00:43:42;22.40;99.90
2453;DHT22;63678;47.994;7.854;2023-07-13T00:46:30;22.30;99.90
2453;DHT22;63678;47.994;7.854;2023-07-13T00:49:06;22.20;99.90
2453;DHT22;63678;47.994;7.854;2023-07-13T00:51:59;22.00;99.90
2453;DHT22;63678;47.994;7.854;2023-07-13T00:54:40;22.70;99.90
2453;DHT22;63678;47.994;7.854;2023-07-13T00:57:17;22.70;99.90
2453;DHT22;63678;47.994;7.854;2023-07-13T00:59:55;22.70;99.90
2453;DHT22;63678;47.994;7.854;2023-07-13T01:02:32;22.70;99.90
2453;DHT22;63678;47.994;7.854;2023-07-13T01:05:10;22.60;99.90
2453;DHT22;63678;47.994;7.854;2023-07-13T01:07:44;22.40;99.90
2453;DHT22;63678;47.994;7.854;2023-07-13T01:10:22;22.40;99.90
2453;DHT22;63678;47.994;7.854;2023-07-13T01:15:49;22.30;99.90
2453;DHT22;63678;47.994;7.854;2023-07-13T01:18:26;22.10;99.90
2453;DHT22;63678;47.994;7.854;2023-07-13T01:21:02;21.90;99.90
2453;DHT22;63678;47.994;7.854;2023-07-13T01:23:36;21.70;99.90
2453;DHT22;63678;47.994;7.854;2023-07-13T01:29:02;21.30;99.90
2453;DHT22;63678;47.994;7.854;2023-07-13T01:31:37;21.60;99.90
2453;DHT22;63678;47.994;7.854;2023-07-13T01:34:10;21.60;99.90
2453;DHT22;63678;47.994;7.854;2023-07-13T01:36:42;22.00;99.90
2453;DHT22;63678;47.994;7.854;2023-07-13T01:39:15;22.10;99.90
2453;DHT22;63678;47.994;7.854;2023-07-13T01:41:47;22.10;99.90
2453;DHT22;63678;47.994;7.854;2023-07-13T01:44:22;22.20;99.90
2453;DHT22;63678;47.994;7.854;2023-07-13T01:46:55;21.80;99.90
2453;DHT22;63678;47.994;7.854;2023-07-13T01:49:28;21.50;99.90
2453;DHT22;63678;47.994;7.854;2023-07-13T01:52:00;21.40;99.90
2453;DHT22;63678;47.994;7.854;2023-07-13T01:57:06;21.50;99.90
2453;DHT22;63678;47.994;7.854;2023-07-13T01:59:38;21.70;99.90
2453;DHT22;63678;47.994;7.854;2023-07-13T02:04:44;21.70;99.90
2453;DHT22;63678;47.994;7.854;2023-07-13T02:07:16;21.40;99.90
2453;DHT22;63678;47.994;7.854;2023-07-13T02:09:48;21.70;99.90
2453;DHT22;63678;47.994;7.854;2023-07-13T02:12:21;21.60;99.90
2453;DHT22;63678;47.994;7.854;2023-07-13T02:14:53;21.40;99.90
2453;DHT22;63678;47.994;7.854;2023-07-13T02:27:39;22.10;99.90
2453;DHT22;63678;47.994;7.854;2023-07-13T02:30:11;21.70;99.90
2453;DHT22;63678;47.994;7.854;2023-07-13T02:35:17;21.30;99.90
2453;DHT22;63678;47.994;7.854;2023-07-13T02:37:49;21.50;99.90
2453;DHT22;63678;47.994;7.854;2023-07-13T02:40:22;20.90;99.90
2453;DHT22;63678;47.994;7.854;2023-07-13T02:42:56;20.70;99.90
2453;DHT22;63678;47.994;7.854;2023-07-13T02:45:29;21.10;99.90
2453;DHT22;63678;47.994;7.854;2023-07-13T02:48:01;21.10;99.90
2453;DHT22;63678;47.994;7.854;2023-07-13T02:50:34;21.00;99.90
2453;DHT22;63678;47.994;7.854;2023-07-13T02:53:06;21.50;99.90
2453;DHT22;63678;47.994;7.854;2023-07-13T02:55:39;21.30;99.90
2453;DHT22;63678;47.994;7.854;2023-07-13T02:58:13;21.10;99.90
2453;DHT22;63678;47.994;7.854;2023-07-13T03:00:49;21.20;99.90
2453;DHT22;63678;47.994;7.854;2023-07-13T03:03:22;21.10;99.90
2453;DHT22;63678;47.994;7.854;2023-07-13T03:06:00;21.00;99.90
2453;DHT22;63678;47.994;7.854;2023-07-13T03:08:41;20.80;99.90
2453;DHT22;63678;47.994;7.854;2023-07-13T03:11:16;20.70;99.90
2453;DHT22;63678;47.994;7.854;2023-07-13T03:13:55;20.90;99.90
2453;DHT22;63678;47.994;7.854;2023-07-13T03:16:29;21.40;99.90
2453;DHT22;63678;47.994;7.854;2023-07-13T03:21:37;20.60;99.90
2453;DHT22;63678;47.994;7.854;2023-07-13T03:26:42;20.00;99.90
2453;DHT22;63678;47.994;7.854;2023-07-13T03:29:15;19.70;99.90
2453;DHT22;63678;47.994;7.854;2023-07-13T03:31:48;19.60;99.90
2453;DHT22;63678;47.994;7.854;2023-07-13T03:34:20;19.60;99.90
2453;DHT22;63678;47.994;7.854;2023-07-13T03:36:56;19.70;99.90
2453;DHT22;63678;47.994;7.854;2023-07-13T03:39:29;20.00;99.90
2453;DHT22;63678;47.994;7.854;2023-07-13T03:42:03;19.90;99.90
2453;DHT22;63678;47.994;7.854;2023-07-13T03:44:38;20.10;99.90
2453;DHT22;63678;47.994;7.854;2023-07-13T03:47:11;19.90;99.90
2453;DHT22;63678;47.994;7.854;2023-07-13T03:49:44;20.40;99.90
2453;DHT22;63678;47.994;7.854;2023-07-13T03:54:53;20.40;99.90
2453;DHT22;63678;47.994;7.854;2023-07-13T04:02:57;20.10;99.90
2453;DHT22;63678;47.994;7.854;2023-07-13T04:08:03;19.70;99.90
2453;DHT22;63678;47.994;7.854;2023-07-13T04:10:37;19.60;99.90
2453;DHT22;63678;47.994;7.854;2023-07-13T04:13:11;19.40;99.90
2453;DHT22;63678;47.994;7.854;2023-07-13T04:15:46;19.30;99.90
2453;DHT22;63678;47.994;7.854;2023-07-13T04:18:18;19.20;99.90
2453;DHT22;63678;47.994;7.854;2023-07-13T04:23:24;19.30;99.90
2453;DHT22;63678;47.994;7.854;2023-07-13T04:28:30;19.50;99.90
2453;DHT22;63678;47.994;7.854;2023-07-13T04:31:03;19.30;99.90
2453;DHT22;63678;47.994;7.854;2023-07-13T04:33:36;19.50;99.90
2453;DHT22;63678;47.994;7.854;2023-07-13T04:36:09;19.40;99.90
2453;DHT22;63678;47.994;7.854;2023-07-13T04:38:42;19.30;99.90
2453;DHT22;63678;47.994;7.854;2023-07-13T04:41:15;19.10;99.90
2453;DHT22;63678;47.994;7.854;2023-07-13T04:46:20;19.20;99.90
2453;DHT22;63678;47.994;7.854;2023-07-13T04:48:53;19.30;99.90
2453;DHT22;63678;47.994;7.854;2023-07-13T04:51:25;19.30;99.90
2453;DHT22;63678;47.994;7.854;2023-07-13T04:53:58;19.40;99.90
2453;DHT22;63678;47.994;7.854;2023-07-13T04:59:05;19.50;99.90
2453;DHT22;63678;47.994;7.854;2023-07-13T05:01:37;19.40;99.90
2453;DHT22;63678;47.994;7.854;2023-07-13T05:09:16;19.30;99.90
2453;DHT22;63678;47.994;7.854;2023-07-13T05:11:48;19.30;99.90
2453;DHT22;63678;47.994;7.854;2023-07-13T05:16:54;19.30;99.90
2453;DHT22;63678;47.994;7.854;2023-07-13T05:19:27;19.30;99.90
2453;DHT22;63678;47.994;7.854;2023-07-13T05:24:35;19.50;99.90
2453;DHT22;63678;47.994;7.854;2023-07-13T05:27:08;19.50;99.90
2453;DHT22;63678;47.994;7.854;2023-07-13T05:29:40;19.50;99.90
2453;DHT22;63678;47.994;7.854;2023-07-13T05:32:13;19.50;99.90
2453;DHT22;63678;47.994;7.854;2023-07-13T05:37:18;19.70;99.90
2453;DHT22;63678;47.994;7.854;2023-07-13T05:44:57;20.60;99.90
2453;DHT22;63678;47.994;7.854;2023-07-13T05:47:44;20.80;99.90
2453;DHT22;63678;47.994;7.854;2023-07-13T05:52:51;20.70;99.90
2453;DHT22;63678;47.994;7.854;2023-07-13T05:57:57;20.90;99.90
2453;DHT22;63678;47.994;7.854;2023-07-13T06:05:41;20.70;99.90
2453;DHT22;63678;47.994;7.854;2023-07-13T06:08:24;20.70;99.90
2453;DHT22;63678;47.994;7.854;2023-07-13T06:11:07;20.60;99.90
2453;DHT22;63678;47.994;7.854;2023-07-13T06:13:53;20.60;99.90
2453;DHT22;63678;47.994;7.854;2023-07-13T06:19:15;21.00;99.90
2453;DHT22;63678;47.994;7.854;2023-07-13T06:22:03;20.90;99.90
2453;DHT22;63678;47.994;7.854;2023-07-13T06:25:54;21.30;99.90
2453;DHT22;63678;47.994;7.854;2023-07-13T06:28:45;21.20;99.90
2453;DHT22;63678;47.994;7.854;2023-07-13T06:31:56;21.20;99.90
2453;DHT22;63678;47.994;7.854;2023-07-13T06:34:46;20.60;99.90
2453;DHT22;63678;47.994;7.854;2023-07-13T06:40:30;21.10;99.90
2453;DHT22;63678;47.994;7.854;2023-07-13T06:44:09;21.50;99.90
2453;DHT22;63678;47.994;7.854;2023-07-13T06:47:01;23.10;99.90
2453;DHT22;63678;47.994;7.854;2023-07-13T06:50:12;21.90;99.90
2453;DHT22;63678;47.994;7.854;2023-07-13T06:52:44;26.10;99.90
2453;DHT22;63678;47.994;7.854;2023-07-13T06:55:18;24.40;99.90
2453;DHT22;63678;47.994;7.854;2023-07-13T06:57:50;25.70;99.90
2453;DHT22;63678;47.994;7.854;2023-07-13T07:00:23;25.80;99.90
2453;DHT22;63678;47.994;7.854;2023-07-13T07:02:55;25.80;99.90
2453;DHT22;63678;47.994;7.854;2023-07-13T07:05:28;25.60;99.90
2453;DHT22;63678;47.994;7.854;2023-07-13T07:08:00;25.40;99.90
2453;DHT22;63678;47.994;7.854;2023-07-13T07:10:34;25.40;99.90
2453;DHT22;63678;47.994;7.854;2023-07-13T07:13:07;25.90;99.90
2453;DHT22;63678;47.994;7.854;2023-07-13T07:15:40;27.10;99.90
2453;DHT22;63678;47.994;7.854;2023-07-13T07:18:12;28.00;99.90
2453;DHT22;63678;47.994;7.854;2023-07-13T07:20:45;29.10;99.90
2453;DHT22;63678;47.994;7.854;2023-07-13T07:23:17;29.10;99.80
2453;DHT22;63678;47.994;7.854;2023-07-13T07:25:51;29.00;99.90
2453;DHT22;63678;47.994;7.854;2023-07-13T07:28:24;28.30;99.80
2453;DHT22;63678;47.994;7.854;2023-07-13T07:30:59;29.30;99.20
2453;DHT22;63678;47.994;7.854;2023-07-13T07:33:35;28.70;98.60
2453;DHT22;63678;47.994;7.854;2023-07-13T07:36:07;28.70;98.70
2453;DHT22;63678;47.994;7.854;2023-07-13T07:38:44;29.90;97.40
2453;DHT22;63678;47.994;7.854;2023-07-13T07:41:16;30.00;97.60
2453;DHT22;63678;47.994;7.854;2023-07-13T07:43:51;27.60;97.80
2453;DHT22;63678;47.994;7.854;2023-07-13T07:46:24;29.40;97.40
2453;DHT22;63678;47.994;7.854;2023-07-13T07:48:56;28.40;98.00
2453;DHT22;63678;47.994;7.854;2023-07-13T07:51:29;28.70;98.10
2453;DHT22;63678;47.994;7.854;2023-07-13T07:54:01;28.20;98.70
2453;DHT22;63678;47.994;7.854;2023-07-13T07:56:35;27.80;99.00
2453;DHT22;63678;47.994;7.854;2023-07-13T08:01:46;28.80;99.30
2453;DHT22;63678;47.994;7.854;2023-07-13T08:04:25;29.40;98.50
2453;DHT22;63678;47.994;7.854;2023-07-13T08:07:00;27.90;98.50
2453;DHT22;63678;47.994;7.854;2023-07-13T08:09:34;28.40;99.20
2453;DHT22;63678;47.994;7.854;2023-07-13T08:12:07;28.20;98.70
2453;DHT22;63678;47.994;7.854;2023-07-13T08:15:13;27.60;99.00
2453;DHT22;63678;47.994;7.854;2023-07-13T08:17:48;27.20;99.10
2453;DHT22;63678;47.994;7.854;2023-07-13T08:20:21;28.20;98.60
2453;DHT22;63678;47.994;7.854;2023-07-13T08:22:53;27.80;98.70
2453;DHT22;63678;47.994;7.854;2023-07-13T08:25:26;27.40;98.00
2453;DHT22;63678;47.994;7.854;2023-07-13T08:27:58;26.70;99.00
2453;DHT22;63678;47.994;7.854;2023-07-13T08:30:30;26.30;99.90
2453;DHT22;63678;47.994;7.854;2023-07-13T08:33:02;26.90;99.90
2453;DHT22;63678;47.994;7.854;2023-07-13T08:35:36;27.40;99.40
2453;DHT22;63678;47.994;7.854;2023-07-13T08:38:08;26.80;99.30
2453;DHT22;63678;47.994;7.854;2023-07-13T08:40:41;26.30;99.90
2453;DHT22;63678;47.994;7.854;2023-07-13T08:43:18;25.80;99.60
2453;DHT22;63678;47.994;7.854;2023-07-13T08:46:05;26.70;98.60
2453;DHT22;63678;47.994;7.854;2023-07-13T08:48:49;26.40;97.90
2453;DHT22;63678;47.994;7.854;2023-07-13T08:54:28;26.60;97.50
2453;DHT22;63678;47.994;7.854;2023-07-13T08:57:20;26.40;98.10
2453;DHT22;63678;47.994;7.854;2023-07-13T09:00:03;26.70;96.80
2453;DHT22;63678;47.994;7.854;2023-07-13T09:02:56;27.20;96.30
2453;DHT22;63678;47.994;7.854;2023-07-13T09:05:38;27.70;96.10
2453;DHT22;63678;47.994;7.854;2023-07-13T09:14:31;27.00;94.90
2453;DHT22;63678;47.994;7.854;2023-07-13T09:17:22;27.10;94.70
2453;DHT22;63678;47.994;7.854;2023-07-13T09:20:14;26.60;96.60
2453;DHT22;63678;47.994;7.854;2023-07-13T09:22:56;26.40;97.60
2453;DHT22;63678;47.994;7.854;2023-07-13T09:25:36;25.80;98.30
2453;DHT22;63678;47.994;7.854;2023-07-13T09:28:22;25.70;98.60
2453;DHT22;63678;47.994;7.854;2023-07-13T09:36:24;25.70;98.40
2453;DHT22;63678;47.994;7.854;2023-07-13T09:41:51;26.40;97.90
2453;DHT22;63678;47.994;7.854;2023-07-13T09:47:15;27.80;96.90
2453;DHT22;63678;47.994;7.854;2023-07-13T09:50:04;28.50;96.50
2453;DHT22;63678;47.994;7.854;2023-07-13T09:52:47;27.10;97.50
2453;DHT22;63678;47.994;7.854;2023-07-13T09:55:25;27.90;95.80
2453;DHT22;63678;47.994;7.854;2023-07-13T09:58:25;27.90;95.90
2453;DHT22;63678;47.994;7.854;2023-07-13T10:01:02;28.00;95.50
2453;DHT22;63678;47.994;7.854;2023-07-13T10:03:52;27.60;95.80
2453;DHT22;63678;47.994;7.854;2023-07-13T10:06:25;28.00;96.20
2453;DHT22;63678;47.994;7.854;2023-07-13T10:08:58;28.00;95.00
2453;DHT22;63678;47.994;7.854;2023-07-13T10:11:31;28.60;94.60
2453;DHT22;63678;47.994;7.854;2023-07-13T10:14:16;27.60;94.80
2453;DHT22;63678;47.994;7.854;2023-07-13T10:16:58;27.60;95.00
2453;DHT22;63678;47.994;7.854;2023-07-13T10:22:26;28.90;94.50
2453;DHT22;63678;47.994;7.854;2023-07-13T10:25:00;28.90;94.40
2453;DHT22;63678;47.994;7.854;2023-07-13T10:27:36;28.30;94.50
2453;DHT22;63678;47.994;7.854;2023-07-13T10:33:03;27.60;94.90
2453;DHT22;63678;47.994;7.854;2023-07-13T10:38:27;28.20;93.80
2453;DHT22;63678;47.994;7.854;2023-07-13T10:41:06;28.80;92.60
2453;DHT22;63678;47.994;7.854;2023-07-13T10:43:50;28.60;91.90
2453;DHT22;63678;47.994;7.854;2023-07-13T10:46:26;28.70;92.60
2453;DHT22;63678;47.994;7.854;2023-07-13T10:49:03;28.90;92.20
2453;DHT22;63678;47.994;7.854;2023-07-13T10:51:37;28.80;92.00
2453;DHT22;63678;47.994;7.854;2023-07-13T10:54:21;28.30;92.60
2453;DHT22;63678;47.994;7.854;2023-07-13T10:57:17;29.00;91.70
2453;DHT22;63678;47.994;7.854;2023-07-13T11:00:15;29.50;91.00
2453;DHT22;63678;47.994;7.854;2023-07-13T11:03:00;29.30;91.50
2453;DHT22;63678;47.994;7.854;2023-07-13T11:05:34;28.40;91.70
2453;DHT22;63678;47.994;7.854;2023-07-13T11:11:03;28.40;91.70
2453;DHT22;63678;47.994;7.854;2023-07-13T11:21:34;28.80;91.60
2453;DHT22;63678;47.994;7.854;2023-07-13T11:29:33;28.40;91.80
2453;DHT22;63678;47.994;7.854;2023-07-13T11:32:30;28.60;92.30
2453;DHT22;63678;47.994;7.854;2023-07-13T11:35:03;28.70;92.50
2453;DHT22;63678;47.994;7.854;2023-07-13T11:37:35;29.00;92.10
2453;DHT22;63678;47.994;7.854;2023-07-13T11:40:13;29.30;91.80
2453;DHT22;63678;47.994;7.854;2023-07-13T11:42:47;29.60;91.60
2453;DHT22;63678;47.994;7.854;2023-07-13T11:45:21;29.30;91.50
2453;DHT22;63678;47.994;7.854;2023-07-13T11:48:25;29.10;92.10
2453;DHT22;63678;47.994;7.854;2023-07-13T11:51:03;28.60;92.10
2453;DHT22;63678;47.994;7.854;2023-07-13T11:53:45;28.50;92.50
2453;DHT22;63678;47.994;7.854;2023-07-13T11:56:19;28.70;92.20
2453;DHT22;63678;47.994;7.854;2023-07-13T11:58:53;28.40;92.50
2453;DHT22;63678;47.994;7.854;2023-07-13T12:01:30;28.10;92.30
2453;DHT22;63678;47.994;7.854;2023-07-13T12:04:05;28.70;92.20
2453;DHT22;63678;47.994;7.854;2023-07-13T12:06:38;29.30;92.00
2453;DHT22;63678;47.994;7.854;2023-07-13T12:09:14;28.60;92.10
2453;DHT22;63678;47.994;7.854;2023-07-13T12:11:50;29.10;91.90
2453;DHT22;63678;47.994;7.854;2023-07-13T12:16:57;29.10;92.80
2453;DHT22;63678;47.994;7.854;2023-07-13T12:19:29;29.20;92.50
2453;DHT22;63678;47.994;7.854;2023-07-13T12:22:01;27.70;92.70
2453;DHT22;63678;47.994;7.854;2023-07-13T12:24:35;28.50;92.50
2453;DHT22;63678;47.994;7.854;2023-07-13T12:27:26;28.90;91.80
2453;DHT22;63678;47.994;7.854;2023-07-13T12:30:03;28.80;91.40
2453;DHT22;63678;47.994;7.854;2023-07-13T12:32:37;27.90;92.00
2453;DHT22;63678;47.994;7.854;2023-07-13T12:35:15;27.60;92.50
2453;DHT22;63678;47.994;7.854;2023-07-13T12:37:53;27.50;92.60
2453;DHT22;63678;47.994;7.854;2023-07-13T12:40:32;27.60;92.80
2453;DHT22;63678;47.994;7.854;2023-07-13T12:43:12;28.30;91.60
2453;DHT22;63678;47.994;7.854;2023-07-13T12:48:39;27.80;92.00
2453;DHT22;63678;47.994;7.854;2023-07-13T12:51:22;27.80;92.30
2453;DHT22;63678;47.994;7.854;2023-07-13T12:54:05;27.50;92.70
2453;DHT22;63678;47.994;7.854;2023-07-13T12:56:45;27.00;92.80
2453;DHT22;63678;47.994;7.854;2023-07-13T12:59:30;26.70;93.20
2453;DHT22;63678;47.994;7.854;2023-07-13T13:02:37;27.40;92.50
2453;DHT22;63678;47.994;7.854;2023-07-13T13:05:13;28.20;92.50
2453;DHT22;63678;47.994;7.854;2023-07-13T13:07:46;27.40;92.10
2453;DHT22;63678;47.994;7.854;2023-07-13T13:15:25;27.90;92.50
2453;DHT22;63678;47.994;7.854;2023-07-13T13:17:58;27.80;92.60
2453;DHT22;63678;47.994;7.854;2023-07-13T13:23:04;28.10;92.80
2453;DHT22;63678;47.994;7.854;2023-07-13T13:25:37;28.00;92.60
2453;DHT22;63678;47.994;7.854;2023-07-13T13:28:17;27.50;92.70
2453;DHT22;63678;47.994;7.854;2023-07-13T13:30:52;26.90;93.10
2453;DHT22;63678;47.994;7.854;2023-07-13T13:33:24;26.90;93.30
2453;DHT22;63678;47.994;7.854;2023-07-13T13:35:57;26.90;93.20
2453;DHT22;63678;47.994;7.854;2023-07-13T13:38:37;27.10;92.40
2453;DHT22;63678;47.994;7.854;2023-07-13T13:41:11;27.70;92.40
2453;DHT22;63678;47.994;7.854;2023-07-13T13:43:46;28.30;92.20
2453;DHT22;63678;47.994;7.854;2023-07-13T13:46:20;28.20;92.70
2453;DHT22;63678;47.994;7.854;2023-07-13T13:48:57;28.00;92.80
2453;DHT22;63678;47.994;7.854;2023-07-13T13:51:29;27.40;92.80
2453;DHT22;63678;47.994;7.854;2023-07-13T13:54:02;26.90;93.10
2453;DHT22;63678;47.994;7.854;2023-07-13T13:59:08;27.00;93.70
2453;DHT22;63678;47.994;7.854;2023-07-13T14:01:42;27.10;93.80
2453;DHT22;63678;47.994;7.854;2023-07-13T14:04:21;27.00;93.50
2453;DHT22;63678;47.994;7.854;2023-07-13T14:09:26;26.50;93.90
2453;DHT22;63678;47.994;7.854;2023-07-13T14:11:59;26.90;94.20
2453;DHT22;63678;47.994;7.854;2023-07-13T14:14:32;26.70;93.50
2453;DHT22;63678;47.994;7.854;2023-07-13T14:17:04;26.90;93.90
2453;DHT22;63678;47.994;7.854;2023-07-13T14:19:37;27.00;93.80
2453;DHT22;63678;47.994;7.854;2023-07-13T14:22:09;26.80;93.50
2453;DHT22;63678;47.994;7.854;2023-07-13T14:24:42;26.40;93.80
2453;DHT22;63678;47.994;7.854;2023-07-13T14:34:53;26.90;94.10
2453;DHT22;63678;47.994;7.854;2023-07-13T14:37:25;26.90;94.40
2453;DHT22;63678;47.994;7.854;2023-07-13T14:39:57;26.90;94.30
2453;DHT22;63678;47.994;7.854;2023-07-13T14:42:30;26.60;94.40
2453;DHT22;63678;47.994;7.854;2023-07-13T14:47:36;26.70;94.60
2453;DHT22;63678;47.994;7.854;2023-07-13T14:50:21;26.50;94.50
2453;DHT22;63678;47.994;7.854;2023-07-13T14:52:56;26.50;94.40
2453;DHT22;63678;47.994;7.854;2023-07-13T14:58:01;26.50;94.80
2453;DHT22;63678;47.994;7.854;2023-07-13T15:00:34;26.50;94.90
2453;DHT22;63678;47.994;7.854;2023-07-13T15:03:18;26.60;94.80
2453;DHT22;63678;47.994;7.854;2023-07-13T15:08:26;26.70;94.90
2453;DHT22;63678;47.994;7.854;2023-07-13T15:13:33;24.10;94.00
2453;DHT22;63678;47.994;7.854;2023-07-13T15:16:17;27.20;94.50
2453;DHT22;63678;47.994;7.854;2023-07-13T15:21:26;27.80;94.00
2453;DHT22;63678;47.994;7.854;2023-07-13T15:24:03;28.00;93.90
2453;DHT22;63678;47.994;7.854;2023-07-13T15:26:41;27.70;93.40
2453;DHT22;63678;47.994;7.854;2023-07-13T15:29:17;27.60;93.80
2453;DHT22;63678;47.994;7.854;2023-07-13T15:31:49;27.50;94.00
2453;DHT22;63678;47.994;7.854;2023-07-13T15:34:24;27.80;94.00
2453;DHT22;63678;47.994;7.854;2023-07-13T15:36:59;27.80;93.50
2453;DHT22;63678;47.994;7.854;2023-07-13T15:42:14;27.60;93.40
2453;DHT22;63678;47.994;7.854;2023-07-13T15:44:48;27.60;93.30
2453;DHT22;63678;47.994;7.854;2023-07-13T15:49:53;27.30;93.40
2453;DHT22;63678;47.994;7.854;2023-07-13T15:52:27;27.30;93.70
2453;DHT22;63678;47.994;7.854;2023-07-13T15:55:01;27.00;93.60
2453;DHT22;63678;47.994;7.854;2023-07-13T15:57:33;27.00;93.50
2453;DHT22;63678;47.994;7.854;2023-07-13T16:00:17;27.30;93.40
2453;DHT22;63678;47.994;7.854;2023-07-13T16:02:55;27.40;93.50
2453;DHT22;63678;47.994;7.854;2023-07-13T16:05:27;27.30;93.30
2453;DHT22;63678;47.994;7.854;2023-07-13T16:08:01;27.30;93.40
2453;DHT22;63678;47.994;7.854;2023-07-13T16:10:36;27.10;93.20
2453;DHT22;63678;47.994;7.854;2023-07-13T16:13:16;26.90;93.30
2453;DHT22;63678;47.994;7.854;2023-07-13T16:15:54;27.00;93.40
2453;DHT22;63678;47.994;7.854;2023-07-13T16:18:28;27.00;93.00
2453;DHT22;63678;47.994;7.854;2023-07-13T16:21:00;26.90;93.40
2453;DHT22;63678;47.994;7.854;2023-07-13T16:23:33;26.80;93.10
2453;DHT22;63678;47.994;7.854;2023-07-13T16:26:33;26.70;93.40
2453;DHT22;63678;47.994;7.854;2023-07-13T16:29:22;26.80;93.40
2453;DHT22;63678;47.994;7.854;2023-07-13T16:32:05;26.80;93.10
2453;DHT22;63678;47.994;7.854;2023-07-13T16:34:43;26.80;93.20
2453;DHT22;63678;47.994;7.854;2023-07-13T16:37:26;26.50;92.80
2453;DHT22;63678;47.994;7.854;2023-07-13T16:40:01;26.50;93.10
2453;DHT22;63678;47.994;7.854;2023-07-13T16:42:39;26.60;93.20
2453;DHT22;63678;47.994;7.854;2023-07-13T16:45:12;26.80;92.40
2453;DHT22;63678;47.994;7.854;2023-07-13T16:47:53;27.00;92.20
2453;DHT22;63678;47.994;7.854;2023-07-13T16:50:31;27.10;92.10
2453;DHT22;63678;47.994;7.854;2023-07-13T16:53:19;27.30;92.20
2453;DHT22;63678;47.994;7.854;2023-07-13T16:55:55;27.20;92.00
2453;DHT22;63678;47.994;7.854;2023-07-13T16:58:30;27.20;91.90
2453;DHT22;63678;47.994;7.854;2023-07-13T17:01:06;27.20;92.20
2453;DHT22;63678;47.994;7.854;2023-07-13T17:03:39;27.40;91.70
2453;DHT22;63678;47.994;7.854;2023-07-13T17:06:23;27.30;91.60
2453;DHT22;63678;47.994;7.854;2023-07-13T17:09:18;27.20;91.70
2453;DHT22;63678;47.994;7.854;2023-07-13T17:14:26;27.20;91.70
2453;DHT22;63678;47.994;7.854;2023-07-13T17:17:04;27.10;92.10
2453;DHT22;63678;47.994;7.854;2023-07-13T17:19:45;26.80;91.70
2453;DHT22;63678;47.994;7.854;2023-07-13T17:22:19;26.90;91.90
2453;DHT22;63678;47.994;7.854;2023-07-13T17:24:51;26.90;92.00
2453;DHT22;63678;47.994;7.854;2023-07-13T17:27:25;26.90;92.10
2453;DHT22;63678;47.994;7.854;2023-07-13T17:32:31;26.50;92.30
2453;DHT22;63678;47.994;7.854;2023-07-13T17:35:17;26.30;92.10
2453;DHT22;63678;47.994;7.854;2023-07-13T17:37:57;26.40;92.80
2453;DHT22;63678;47.994;7.854;2023-07-13T17:40:31;26.30;92.50
2453;DHT22;63678;47.994;7.854;2023-07-13T17:43:07;26.10;92.40
2453;DHT22;63678;47.994;7.854;2023-07-13T17:48:13;26.00;92.30
2453;DHT22;63678;47.994;7.854;2023-07-13T17:50:46;25.90;92.60
2453;DHT22;63678;47.994;7.854;2023-07-13T17:53:22;25.90;93.00
2453;DHT22;63678;47.994;7.854;2023-07-13T17:55:55;25.80;92.80
2453;DHT22;63678;47.994;7.854;2023-07-13T17:58:27;25.70;92.80
2453;DHT22;63678;47.994;7.854;2023-07-13T18:01:00;25.60;92.50
2453;DHT22;63678;47.994;7.854;2023-07-13T18:03:36;25.60;92.50
2453;DHT22;63678;47.994;7.854;2023-07-13T18:06:32;25.60;92.80
2453;DHT22;63678;47.994;7.854;2023-07-13T18:09:18;25.60;93.30
2453;DHT22;63678;47.994;7.854;2023-07-13T18:11:53;25.60;93.00
2453;DHT22;63678;47.994;7.854;2023-07-13T18:19:37;25.60;93.10
2453;DHT22;63678;47.994;7.854;2023-07-13T18:22:14;25.60;92.90
2453;DHT22;63678;47.994;7.854;2023-07-13T18:24:48;25.70;93.80
2453;DHT22;63678;47.994;7.854;2023-07-13T18:27:22;25.60;93.60
2453;DHT22;63678;47.994;7.854;2023-07-13T18:32:29;25.60;93.50
2453;DHT22;63678;47.994;7.854;2023-07-13T18:35:15;25.60;93.70
2453;DHT22;63678;47.994;7.854;2023-07-13T18:37:53;25.40;93.50
2453;DHT22;63678;47.994;7.854;2023-07-13T18:43:02;25.40;93.80
2453;DHT22;63678;47.994;7.854;2023-07-13T18:48:13;25.10;93.50
2453;DHT22;63678;47.994;7.854;2023-07-13T18:50:51;25.10;93.60
2453;DHT22;63678;47.994;7.854;2023-07-13T18:53:25;25.10;93.90
2453;DHT22;63678;47.994;7.854;2023-07-13T18:56:00;25.00;93.90
2453;DHT22;63678;47.994;7.854;2023-07-13T18:58:33;24.90;94.20
2453;DHT22;63678;47.994;7.854;2023-07-13T19:01:23;24.80;94.20
2453;DHT22;63678;47.994;7.854;2023-07-13T19:04:27;24.70;94.30
2453;DHT22;63678;47.994;7.854;2023-07-13T19:07:06;24.70;94.20
2453;DHT22;63678;47.994;7.854;2023-07-13T19:12:18;23.80;94.60
2453;DHT22;63678;47.994;7.854;2023-07-13T19:14:54;24.50;95.20
2453;DHT22;63678;47.994;7.854;2023-07-13T19:22:34;24.10;95.60
2453;DHT22;63678;47.994;7.854;2023-07-13T19:25:13;24.00;95.90
2453;DHT22;63678;47.994;7.854;2023-07-13T19:27:53;23.80;96.00
2453;DHT22;63678;47.994;7.854;2023-07-13T19:30:32;23.70;96.10
2453;DHT22;63678;47.994;7.854;2023-07-13T19:33:08;23.50;96.50
2453;DHT22;63678;47.994;7.854;2023-07-13T19:35:44;23.50;96.10
2453;DHT22;63678;47.994;7.854;2023-07-13T19:38:21;23.40;96.60
2453;DHT22;63678;47.994;7.854;2023-07-13T19:40:55;23.30;96.70
2453;DHT22;63678;47.994;7.854;2023-07-13T19:43:29;23.20;96.90
2453;DHT22;63678;47.994;7.854;2023-07-13T19:51:12;22.90;97.70
2453;DHT22;63678;47.994;7.854;2023-07-13T19:53:53;22.80;97.60
2453;DHT22;63678;47.994;7.854;2023-07-13T19:56:28;22.70;97.60
2453;DHT22;63678;47.994;7.854;2023-07-13T19:59:24;22.80;98.00
2453;DHT22;63678;47.994;7.854;2023-07-13T20:01:59;22.80;97.80
2453;DHT22;63678;47.994;7.854;2023-07-13T20:04:34;22.80;97.90
2453;DHT22;63678;47.994;7.854;2023-07-13T20:07:14;22.70;98.50
2453;DHT22;63678;47.994;7.854;2023-07-13T20:09:49;22.60;98.70
2453;DHT22;63678;47.994;7.854;2023-07-13T20:12:24;22.40;98.40
2453;DHT22;63678;47.994;7.854;2023-07-13T20:17:34;22.20;99.10
2453;DHT22;63678;47.994;7.854;2023-07-13T20:20:32;22.10;99.50
2453;DHT22;63678;47.994;7.854;2023-07-13T20:23:13;21.90;99.90
2453;DHT22;63678;47.994;7.854;2023-07-13T20:25:49;21.90;99.90